This is the latest recevied weather packets stored in our database for station/object K3HM. If no packets are shown the sender has not sent any weather packets the latest 1 day(s).
| Time | Temp. | Humidity | Pressure | Rain* | Wind** | Luminosity | Snow |
|---|---|---|---|---|---|---|---|
| 1778021598 | 20° C | 46% | 1011.2 hPa | 0 mm | 1.34 m/s, 210° | 91 W/m² | - |
| 1778021293 | 20° C | 44% | 1011.1 hPa | 0 mm | 4.02 m/s, 226° | 83 W/m² | - |
| 1778020991 | 20° C | 43% | 1011.1 hPa | 0 mm | 4.47 m/s, 217° | 80 W/m² | - |
| 1778020688 | 20° C | 44% | 1011 hPa | 0 mm | 1.79 m/s, 219° | 92 W/m² | - |
| 1778020385 | 20° C | 45% | 1011.1 hPa | 0 mm | 2.68 m/s, 310° | 96 W/m² | - |
| 1778020080 | 20° C | 44% | 1011 hPa | 0 mm | 1.34 m/s, 305° | 103 W/m² | - |
| 1778019777 | 20° C | 45% | 1011.1 hPa | 0 mm | 1.34 m/s, 309° | 107 W/m² | - |
| 1778019474 | 20° C | 48% | 1011.4 hPa | 0 mm | 0.89 m/s, 271° | 112 W/m² | - |
| 1778019171 | 20° C | 49% | 1011.2 hPa | 0 mm | 1.34 m/s, 289° | 106 W/m² | - |
| 1778018868 | 20° C | 50% | 1011.4 hPa | 0 mm | 1.34 m/s, 297° | 112 W/m² | - |
| 1778018565 | 20° C | 48% | 1011.4 hPa | 0 mm | 1.34 m/s, 273° | 118 W/m² | - |
| 1778018263 | 20° C | 49% | 1011.3 hPa | 0 mm | 1.34 m/s, 300° | 109 W/m² | - |
| 1778017961 | 20° C | 47% | 1011.3 hPa | 0 mm | 3.58 m/s, 215° | 109 W/m² | - |
| 1778017658 | 20° C | 49% | 1011.3 hPa | 0 mm | 2.24 m/s, 224° | 119 W/m² | - |
| 1778017355 | 20.56° C | 47% | 1011.2 hPa | 0 mm | 3.58 m/s, 214° | 128 W/m² | - |
| 1778017053 | 20.56° C | 47% | 1011.1 hPa | 0 mm | 3.58 m/s, 254° | 134 W/m² | - |
| 1778016750 | 20.56° C | 47% | 1011 hPa | 0 mm | 4.02 m/s, 221° | 140 W/m² | - |
| 1778016446 | 21.11° C | 47% | 1011 hPa | 0 mm | 3.58 m/s, 201° | 126 W/m² | - |
| 1778016143 | 21.11° C | 46% | 1010.9 hPa | 0 mm | 4.02 m/s, 222° | 131 W/m² | - |
| 1778015840 | 21.11° C | 47% | 1010.5 hPa | 0 mm | 2.68 m/s, 261° | 140 W/m² | - |
| 1778015537 | 21.11° C | 47% | 1010.7 hPa | 0 mm | 2.24 m/s, 217° | 153 W/m² | - |
| 1778015234 | 21.11° C | 45% | 1011 hPa | 0 mm | 2.24 m/s, 221° | 168 W/m² | - |
| 1778014930 | 21.67° C | 45% | 1010.5 hPa | 0 mm | 2.24 m/s, 218° | 176 W/m² | - |
| 1778014628 | 21.67° C | 47% | 1010.7 hPa | 0 mm | 4.02 m/s, 270° | 178 W/m² | - |
| 1778014326 | 21.67° C | 47% | 1010.9 hPa | 0 mm | 1.79 m/s, 211° | 205 W/m² | - |
* Rain latest hour (hover to see other rain measurements)
** Current wind speed in m/s (hover to see current wind gust speed)